createdAt,value
2019-03-10T00:00:51.196Z,99789.84
2019-03-10T00:03:24.853Z,99792.53
2019-03-10T00:05:56.440Z,99791.16
2019-03-10T00:08:29.149Z,99807.91
2019-03-10T00:10:59.661Z,99794.63
2019-03-10T00:13:30.202Z,99822.87
2019-03-10T00:16:00.715Z,99833.30
2019-03-10T00:18:31.254Z,99840.59
2019-03-10T00:21:02.692Z,99849.81
2019-03-10T00:23:33.223Z,99862.61
2019-03-10T00:26:03.746Z,99870.00
2019-03-10T00:28:35.525Z,99875.73
2019-03-10T00:31:06.963Z,99875.41
2019-03-10T00:33:37.510Z,99891.64
2019-03-10T00:36:08.020Z,99887.55
2019-03-10T00:38:50.786Z,99909.29
2019-03-10T00:41:32.887Z,99902.80
2019-03-10T00:44:29.308Z,99908.92
2019-03-10T00:47:05.506Z,99921.66
2019-03-10T00:50:03.949Z,99908.03
2019-03-10T00:52:46.265Z,99920.67
2019-03-10T00:55:16.580Z,99930.02
2019-03-10T00:57:46.902Z,99924.66
2019-03-10T01:00:18.535Z,99926.39
2019-03-10T01:02:48.857Z,99931.41
2019-03-10T01:05:20.324Z,99933.21
2019-03-10T01:07:51.144Z,99952.64
2019-03-10T01:10:22.306Z,99948.22
2019-03-10T01:12:54.657Z,99947.22
2019-03-10T01:15:24.909Z,99954.61
2019-03-10T01:17:57.550Z,99954.27
2019-03-10T01:20:27.982Z,99956.81
2019-03-10T01:22:59.306Z,99954.44
2019-03-10T01:25:30.838Z,99968.87
2019-03-10T01:28:01.217Z,99975.01
2019-03-10T01:30:34.734Z,99967.24
2019-03-10T01:33:30.797Z,99977.97
2019-03-10T01:36:01.095Z,99978.04
2019-03-10T01:38:31.339Z,99969.52
2019-03-10T01:41:02.770Z,99967.72
2019-03-10T01:43:33.895Z,99969.52
2019-03-10T01:46:04.186Z,99965.20
2019-03-10T01:48:34.643Z,99957.57
2019-03-10T01:51:06.108Z,99955.19
2019-03-10T01:53:37.547Z,99955.27
2019-03-10T01:56:08.769Z,99962.48
2019-03-10T01:58:39.214Z,99964.48
2019-03-10T02:01:09.468Z,99963.03
2019-03-10T02:03:40.894Z,99947.69
2019-03-10T02:06:12.352Z,99966.55
2019-03-10T02:08:42.872Z,99961.80
2019-03-10T02:11:14.331Z,99966.14
2019-03-10T02:13:45.774Z,99967.11
2019-03-10T02:16:16.030Z,99972.11
2019-03-10T02:18:47.454Z,99969.84
2019-03-10T02:21:17.989Z,99976.15
2019-03-10T02:23:49.128Z,99979.32
2019-03-10T02:26:19.659Z,99982.11
2019-03-10T02:28:51.109Z,99988.67
2019-03-10T02:31:22.582Z,99984.33
2019-03-10T02:33:53.088Z,99983.60
2019-03-10T02:36:24.547Z,99969.48
2019-03-10T02:38:56.041Z,99975.22
2019-03-10T02:41:27.462Z,99967.83
2019-03-10T02:43:58.884Z,99971.52
2019-03-10T02:46:31.132Z,99951.75
2019-03-10T02:49:03.640Z,99974.68
2019-03-10T02:51:33.895Z,99977.29
2019-03-10T02:54:04.394Z,99979.06
2019-03-10T02:56:34.676Z,99973.29
2019-03-10T02:59:06.060Z,99958.09
2019-03-10T03:01:37.840Z,99955.04
2019-03-10T03:04:09.286Z,99952.80
2019-03-10T03:06:41.285Z,99963.51
2019-03-10T03:09:11.567Z,99971.85
2019-03-10T03:11:41.820Z,99981.32
2019-03-10T03:14:12.055Z,99982.81
2019-03-10T03:16:43.777Z,99972.93
2019-03-10T03:19:15.206Z,99966.52
2019-03-10T03:21:45.461Z,99961.46
2019-03-10T03:24:16.593Z,99961.46
2019-03-10T03:26:48.045Z,99964.80
2019-03-10T03:29:19.493Z,99980.70
2019-03-10T03:31:49.735Z,99969.87
2019-03-10T03:34:21.169Z,99977.02
2019-03-10T03:36:52.625Z,99992.43
2019-03-10T03:39:27.593Z,99993.09
2019-03-10T03:41:57.982Z,99986.44
2019-03-10T03:44:29.420Z,99987.98
2019-03-10T03:46:59.677Z,99993.86
2019-03-10T03:49:31.093Z,100005.83
2019-03-10T03:52:02.566Z,100004.34
2019-03-10T03:54:33.068Z,99996.59
2019-03-10T03:57:04.549Z,100006.84
2019-03-10T03:59:35.161Z,100001.91
2019-03-10T04:02:07.234Z,99999.70
2019-03-10T04:04:37.662Z,99988.63
2019-03-10T04:07:08.196Z,99985.22
2019-03-10T04:09:40.549Z,99997.80
2019-03-10T04:12:10.814Z,99988.97
2019-03-10T04:14:42.227Z,99986.28
2019-03-10T04:17:13.688Z,99980.79
2019-03-10T04:19:45.134Z,99980.61
2019-03-10T04:22:15.386Z,99974.62
2019-03-10T04:24:45.881Z,99963.78
2019-03-10T04:27:17.351Z,99944.91
2019-03-10T04:29:48.474Z,99948.57
2019-03-10T04:32:18.725Z,99943.08
2019-03-10T04:34:52.309Z,99944.84
2019-03-10T04:37:23.773Z,99941.84
2019-03-10T04:39:54.283Z,99941.17
2019-03-10T04:42:24.548Z,99942.19
2019-03-10T04:44:54.791Z,99939.94
2019-03-10T04:47:26.203Z,99950.20
2019-03-10T04:49:56.705Z,99949.05
2019-03-10T04:52:27.030Z,99957.19
2019-03-10T04:55:07.845Z,99957.73
2019-03-10T04:57:39.775Z,99951.08
2019-03-10T05:00:10.151Z,99958.73
2019-03-10T05:02:40.733Z,99955.64
2019-03-10T05:05:12.166Z,99961.57
2019-03-10T05:07:43.333Z,99966.20
2019-03-10T05:10:14.767Z,99969.97
2019-03-10T05:12:45.041Z,99976.39
2019-03-10T05:15:16.752Z,99977.28
2019-03-10T05:17:50.137Z,99975.34
2019-03-10T05:20:20.633Z,99969.83
2019-03-10T05:22:50.827Z,99972.84
2019-03-10T05:25:23.560Z,99973.94
2019-03-10T05:27:54.012Z,99964.87
2019-03-10T05:30:24.249Z,99978.73
2019-03-10T05:32:55.692Z,99973.21
2019-03-10T05:35:26.205Z,99974.67
2019-03-10T05:37:57.672Z,99971.55
2019-03-10T05:40:29.109Z,99971.41
2019-03-10T05:43:01.496Z,99981.84
2019-03-10T05:45:32.937Z,99982.02
2019-03-10T05:48:03.478Z,99979.67
2019-03-10T05:50:36.455Z,99974.14
2019-03-10T05:53:09.160Z,99966.26
2019-03-10T05:55:40.585Z,99958.97
2019-03-10T05:58:10.841Z,99954.63
2019-03-10T06:00:43.424Z,99955.66
2019-03-10T06:03:15.271Z,99954.14
2019-03-10T06:05:47.637Z,99960.59
2019-03-10T06:08:18.169Z,99962.16
2019-03-10T06:10:48.698Z,99954.95
2019-03-10T06:13:19.220Z,99951.38
2019-03-10T06:15:49.745Z,99958.86
2019-03-10T06:18:21.205Z,99952.96
2019-03-10T06:20:52.640Z,99939.56
2019-03-10T06:23:22.904Z,99943.59
2019-03-10T06:25:54.017Z,99937.30
2019-03-10T06:28:25.481Z,99927.39
2019-03-10T06:30:56.920Z,99923.70
2019-03-10T06:33:28.374Z,99918.84
2019-03-10T06:35:59.196Z,99915.16
2019-03-10T06:38:30.670Z,99917.94
2019-03-10T06:41:01.182Z,99901.31
2019-03-10T06:43:32.652Z,99922.09
2019-03-10T06:46:04.093Z,99932.97
2019-03-10T06:48:35.533Z,99935.48
2019-03-10T06:51:05.783Z,99941.78
2019-03-10T06:53:37.208Z,99940.72
2019-03-10T06:56:07.468Z,99945.20
2019-03-10T06:58:38.880Z,99949.80
2019-03-10T07:01:09.118Z,99955.34
2019-03-10T07:03:40.553Z,99958.70
2019-03-10T07:06:10.798Z,99960.95
2019-03-10T07:08:41.044Z,99968.68
2019-03-10T07:11:12.455Z,99965.06
2019-03-10T07:13:43.000Z,99956.48
2019-03-10T07:16:14.435Z,99957.00
2019-03-10T07:18:45.956Z,99958.61
2019-03-10T07:21:16.411Z,99949.48
2019-03-10T07:23:46.660Z,99944.27
2019-03-10T07:26:17.790Z,99935.38
2019-03-10T07:29:04.637Z,99933.41
2019-03-10T07:31:43.562Z,99923.24
2019-03-10T07:34:15.600Z,99923.27
2019-03-10T07:36:47.652Z,99925.09
2019-03-10T07:39:34.591Z,99916.39
2019-03-10T07:42:09.258Z,99922.50
2019-03-10T07:44:59.433Z,99914.50
2019-03-10T07:47:41.495Z,99920.64
2019-03-10T07:50:22.180Z,99926.38
2019-03-10T07:53:13.286Z,99914.27
2019-03-10T07:55:54.158Z,99913.09
2019-03-10T07:58:43.416Z,99911.19
2019-03-10T08:01:17.092Z,99906.12
2019-03-10T08:03:51.777Z,99918.55
2019-03-10T08:06:32.078Z,99907.17
2019-03-10T08:09:07.345Z,99909.23
2019-03-10T08:11:42.652Z,99905.36
2019-03-10T08:14:20.258Z,99903.45
2019-03-10T08:16:53.378Z,99886.13
2019-03-10T08:19:37.271Z,99865.52
2019-03-10T08:22:18.470Z,99861.47
2019-03-10T08:25:03.827Z,99854.33
2019-03-10T08:27:36.679Z,99867.25
2019-03-10T08:30:11.336Z,99857.16
2019-03-10T08:32:57.053Z,99848.25
2019-03-10T08:35:34.969Z,99846.03
2019-03-10T08:38:23.441Z,99850.64
2019-03-10T08:40:55.393Z,99844.26
2019-03-10T08:43:30.140Z,99852.25
2019-03-10T08:46:10.227Z,99848.21
2019-03-10T08:48:51.018Z,99842.13
2019-03-10T08:51:23.013Z,99844.23
2019-03-10T08:53:55.063Z,99843.11
2019-03-10T08:56:27.126Z,99844.98
2019-03-10T08:59:15.279Z,99839.27
2019-03-10T09:01:47.544Z,99839.92
2019-03-10T09:04:34.457Z,99830.99
2019-03-10T09:07:21.624Z,99835.61
2019-03-10T09:10:06.926Z,99823.72
2019-03-10T09:12:38.783Z,99817.56
2019-03-10T09:15:27.048Z,99820.21
2019-03-10T09:17:59.040Z,99806.89
2019-03-10T09:20:49.889Z,99805.11
2019-03-10T09:23:35.079Z,99798.75
2019-03-10T09:26:08.295Z,99793.17
2019-03-10T09:28:40.363Z,99781.06
2019-03-10T09:31:28.876Z,99761.98
2019-03-10T09:34:14.420Z,99768.90
2019-03-10T09:36:48.483Z,99760.88
2019-03-10T09:39:20.583Z,99753.27
2019-03-10T09:42:01.760Z,99751.34
2019-03-10T09:44:38.379Z,99748.23
2019-03-10T09:47:26.777Z,99756.83
2019-03-10T09:49:59.147Z,99755.88
2019-03-10T09:52:31.328Z,99755.23
2019-03-10T09:55:03.502Z,99744.60
2019-03-10T09:57:46.504Z,99744.75
2019-03-10T10:00:18.603Z,99746.70
2019-03-10T10:02:51.103Z,99751.41
2019-03-10T10:05:26.027Z,99751.92
2019-03-10T10:08:04.491Z,99764.02
2019-03-10T10:10:39.051Z,99762.72
2019-03-10T10:13:28.413Z,99761.98
2019-03-10T10:16:15.931Z,99769.08
2019-03-10T10:18:48.634Z,99760.67
2019-03-10T10:21:22.009Z,99752.48
2019-03-10T10:24:09.531Z,99758.63
2019-03-10T10:26:57.587Z,99744.91
2019-03-10T10:29:32.705Z,99754.66
2019-03-10T10:32:10.937Z,99738.70
2019-03-10T10:34:45.980Z,99756.84
2019-03-10T10:37:21.518Z,99750.23
2019-03-10T10:40:11.827Z,99740.25
2019-03-10T10:43:00.553Z,99745.23
2019-03-10T10:45:50.388Z,99739.76
2019-03-10T10:48:25.154Z,99725.69
2019-03-10T10:51:10.688Z,99731.03
2019-03-10T10:53:52.258Z,99728.37
2019-03-10T10:56:33.737Z,99715.58
2019-03-10T10:59:09.375Z,99711.14
2019-03-10T11:01:46.727Z,99707.00
2019-03-10T11:04:20.166Z,99709.36
2019-03-10T11:06:52.219Z,99698.36
2019-03-10T11:09:27.221Z,99696.92
2019-03-10T11:12:06.382Z,99691.66
2019-03-10T11:14:38.300Z,99677.30
2019-03-10T11:17:22.330Z,99660.42
2019-03-10T11:20:09.505Z,99681.65
2019-03-10T11:22:45.353Z,99665.73
2019-03-10T11:25:18.481Z,99662.05
2019-03-10T11:27:50.523Z,99663.33
2019-03-10T11:30:25.523Z,99651.03
2019-03-10T11:33:13.863Z,99649.77
2019-03-10T11:36:03.676Z,99651.92
2019-03-10T11:38:38.546Z,99635.04
2019-03-10T11:41:33.691Z,99642.13
2019-03-10T11:44:18.319Z,99631.95
2019-03-10T11:47:07.833Z,99632.81
2019-03-10T11:49:40.798Z,99617.23
2019-03-10T11:52:13.095Z,99618.95
2019-03-10T11:54:57.010Z,99623.47
2019-03-10T11:57:30.200Z,99613.78
2019-03-10T12:00:07.929Z,99605.92
2019-03-10T12:02:43.770Z,99611.08
2019-03-10T12:05:20.056Z,99602.86
2019-03-10T12:07:53.172Z,99593.97
2019-03-10T12:10:23.605Z,99588.14
2019-03-10T12:12:55.348Z,99589.34
2019-03-10T12:15:25.889Z,99590.20
2019-03-10T12:17:57.345Z,99575.05
2019-03-10T12:20:28.794Z,99571.73
2019-03-10T12:22:59.318Z,99573.20
2019-03-10T12:25:30.795Z,99571.48
2019-03-10T12:28:01.329Z,99558.42
2019-03-10T12:30:33.054Z,99546.33
2019-03-10T12:33:03.593Z,99543.35
2019-03-10T12:35:34.889Z,99540.72
2019-03-10T12:38:06.788Z,99532.33
2019-03-10T12:40:38.244Z,99531.06
2019-03-10T12:43:10.004Z,99516.57
2019-03-10T12:45:41.478Z,99502.29
2019-03-10T12:48:12.935Z,99500.53
2019-03-10T12:50:45.018Z,99493.70
2019-03-10T12:53:15.497Z,99489.57
2019-03-10T12:55:46.052Z,99480.00
2019-03-10T12:58:17.821Z,99479.28
2019-03-10T13:00:49.860Z,99475.16
2019-03-10T13:03:21.339Z,99478.16
2019-03-10T13:05:55.263Z,99470.00
2019-03-10T13:08:25.556Z,99457.47
2019-03-10T13:10:56.357Z,99453.88
2019-03-10T13:13:28.047Z,99456.72
2019-03-10T13:15:59.531Z,99449.83
2019-03-10T13:18:30.101Z,99446.50
2019-03-10T13:21:00.572Z,99448.45
2019-03-10T13:23:32.014Z,99448.08
2019-03-10T13:26:03.493Z,99450.54
2019-03-10T13:28:36.661Z,99450.91
2019-03-10T13:31:09.182Z,99440.49
2019-03-10T13:33:40.886Z,99438.57
2019-03-10T13:36:11.417Z,99444.55
2019-03-10T13:38:43.494Z,99446.30
2019-03-10T13:41:14.096Z,99452.51
2019-03-10T13:43:46.794Z,99456.99
2019-03-10T13:46:17.286Z,99459.04
2019-03-10T13:48:47.742Z,99450.50
2019-03-10T13:51:18.290Z,99446.44
2019-03-10T13:53:48.812Z,99439.11
2019-03-10T13:56:20.262Z,99429.56
2019-03-10T13:58:50.769Z,99420.23
2019-03-10T14:01:21.349Z,99420.96
2019-03-10T14:03:51.840Z,99413.30
2019-03-10T14:06:23.312Z,99405.80
2019-03-10T14:08:55.287Z,99392.55
2019-03-10T14:11:25.614Z,99393.83
2019-03-10T14:13:58.272Z,99384.25
2019-03-10T14:16:28.812Z,99369.19
2019-03-10T14:18:59.722Z,99361.97
2019-03-10T14:21:32.356Z,99361.29
2019-03-10T14:24:04.084Z,99356.59
2019-03-10T14:26:34.610Z,99353.95
2019-03-10T14:29:05.145Z,99352.07
2019-03-10T14:31:35.675Z,99347.09
2019-03-10T14:34:07.105Z,99349.08
2019-03-10T14:36:37.739Z,99344.06
2019-03-10T14:39:08.439Z,99343.23
2019-03-10T14:41:41.786Z,99344.56
2019-03-10T14:44:13.243Z,99336.44
2019-03-10T14:46:46.972Z,99329.75
2019-03-10T14:49:23.075Z,99320.53
2019-03-10T14:51:49.422Z,99314.23
2019-03-10T14:54:22.220Z,99303.95
2019-03-10T14:56:52.626Z,99305.84
2019-03-10T14:59:24.103Z,99310.95
2019-03-10T15:01:54.632Z,99302.28
2019-03-10T15:04:25.139Z,99294.13
2019-03-10T15:06:56.599Z,99290.81
2019-03-10T15:09:27.117Z,99279.27
2019-03-10T15:11:58.571Z,99270.77
2019-03-10T15:14:29.192Z,99264.97
2019-03-10T15:17:02.316Z,99261.37
2019-03-10T15:19:32.629Z,99252.13
2019-03-10T15:22:03.144Z,99246.87
2019-03-10T15:24:34.617Z,99242.49
2019-03-10T15:27:05.755Z,99234.45
2019-03-10T15:29:36.315Z,99232.56
2019-03-10T15:32:06.821Z,99226.80
2019-03-10T15:34:39.810Z,99225.34
2019-03-10T15:37:11.014Z,99223.70
2019-03-10T15:39:41.473Z,99217.28
2019-03-10T15:42:11.993Z,99214.85
2019-03-10T15:44:42.521Z,99217.72
2019-03-10T15:47:13.980Z,99209.91
2019-03-10T15:49:45.451Z,99209.33
2019-03-10T15:52:16.888Z,99196.52
2019-03-10T15:54:47.415Z,99193.13
2019-03-10T15:57:17.951Z,99193.09
2019-03-10T15:59:49.715Z,99181.83
2019-03-10T16:02:20.238Z,99172.59
2019-03-10T16:04:50.777Z,99166.90
2019-03-10T16:07:21.308Z,99166.52
2019-03-10T16:09:51.828Z,99156.38
2019-03-10T16:12:23.291Z,99147.28
2019-03-10T16:14:53.801Z,99146.74
2019-03-10T16:17:26.171Z,99146.95
2019-03-10T16:19:58.097Z,99146.03
2019-03-10T16:22:28.459Z,99135.87
2019-03-10T16:25:00.458Z,99129.80
2019-03-10T16:27:31.056Z,99136.59
2019-03-10T16:30:01.572Z,99127.28
2019-03-10T16:32:33.952Z,99121.91
2019-03-10T16:35:07.634Z,99122.77
2019-03-10T16:37:39.316Z,99123.15
2019-03-10T16:40:20.756Z,99124.87
2019-03-10T16:42:52.083Z,99122.33
2019-03-10T16:45:26.073Z,99121.83
2019-03-10T16:47:57.817Z,99116.64
2019-03-10T16:50:29.946Z,99123.75
2019-03-10T16:53:00.319Z,99115.57
2019-03-10T16:55:30.857Z,99105.06
2019-03-10T16:58:02.607Z,99097.25
2019-03-10T17:00:33.217Z,99102.02
2019-03-10T17:03:06.865Z,99099.23
2019-03-10T17:05:40.850Z,99090.12
2019-03-10T17:08:16.128Z,99090.32
2019-03-10T17:10:48.758Z,99086.50
2019-03-10T17:13:20.221Z,99079.92
2019-03-10T17:15:51.674Z,99081.32
2019-03-10T17:18:22.238Z,99074.41
2019-03-10T17:20:52.773Z,99075.09
2019-03-10T17:23:24.225Z,99080.97
2019-03-10T17:25:56.617Z,99070.20
2019-03-10T17:28:30.323Z,99051.50
2019-03-10T17:31:03.172Z,99047.92
2019-03-10T17:33:33.878Z,99041.39
2019-03-10T17:36:05.177Z,99048.36
2019-03-10T17:38:36.629Z,99049.70
2019-03-10T17:41:07.110Z,99057.88
2019-03-10T17:43:38.111Z,99054.16
2019-03-10T17:46:08.479Z,99038.86
2019-03-10T17:48:39.931Z,99046.34
2019-03-10T17:51:12.690Z,99051.50
2019-03-10T17:53:45.455Z,99053.05
2019-03-10T17:56:20.905Z,99048.99
2019-03-10T17:58:55.222Z,99045.10
2019-03-10T18:01:27.924Z,99032.03
2019-03-10T18:04:00.478Z,99025.27
2019-03-10T18:06:39.469Z,99026.77
2019-03-10T18:09:23.178Z,99014.77
2019-03-10T18:11:59.366Z,98999.77
2019-03-10T18:14:30.858Z,99001.66
2019-03-10T18:17:02.625Z,98993.30
2019-03-10T18:19:33.442Z,98999.63
2019-03-10T18:22:03.818Z,98992.55
2019-03-10T18:24:35.266Z,98983.92
2019-03-10T18:27:07.354Z,98965.91
2019-03-10T18:29:37.849Z,98960.02
2019-03-10T18:32:10.090Z,98948.30
2019-03-10T18:34:47.041Z,98941.42
2019-03-10T18:37:20.890Z,98930.55
2019-03-10T18:39:51.361Z,98925.61
2019-03-10T18:42:23.580Z,98916.42
2019-03-10T18:44:54.585Z,98910.41
2019-03-10T18:47:25.116Z,98895.52
2019-03-10T18:49:57.495Z,98906.13
2019-03-10T18:52:29.956Z,98904.89
2019-03-10T18:55:03.001Z,98911.94
2019-03-10T18:57:35.031Z,98902.11
2019-03-10T19:00:10.155Z,98899.06
2019-03-10T19:02:44.492Z,98896.24
2019-03-10T19:05:16.783Z,98899.25
2019-03-10T19:07:49.796Z,98903.87
2019-03-10T19:10:21.398Z,98897.70
2019-03-10T19:12:52.522Z,98896.69
2019-03-10T19:15:27.756Z,98897.15
2019-03-10T19:18:02.261Z,98901.20
2019-03-10T19:20:37.369Z,98899.19
2019-03-10T19:23:08.807Z,98896.63
2019-03-10T19:25:44.059Z,98894.64
2019-03-10T19:28:15.394Z,98891.90
2019-03-10T19:30:45.870Z,98896.50
2019-03-10T19:33:16.609Z,98883.38
2019-03-10T19:35:48.618Z,98887.20
2019-03-10T19:38:20.498Z,98874.09
2019-03-10T19:40:53.079Z,98872.70
2019-03-10T19:43:23.446Z,98867.89
2019-03-10T19:45:55.218Z,98863.89
2019-03-10T19:48:25.738Z,98861.11
2019-03-10T19:50:56.261Z,98865.52
2019-03-10T19:53:35.056Z,98862.31
2019-03-10T19:56:06.247Z,98858.22
2019-03-10T19:58:41.398Z,98852.82
2019-03-10T20:01:11.998Z,98850.82
2019-03-10T20:03:43.943Z,98847.20
2019-03-10T20:06:15.670Z,98846.23
2019-03-10T20:08:46.502Z,98859.03
2019-03-10T20:11:17.314Z,98837.67
2019-03-10T20:13:49.279Z,98828.03
2019-03-10T20:16:20.790Z,98824.84
2019-03-10T20:18:51.323Z,98822.25
2019-03-10T20:21:21.742Z,98817.78
2019-03-10T20:23:52.963Z,98824.90
2019-03-10T20:26:24.353Z,98812.14
2019-03-10T20:28:59.755Z,98814.19
2019-03-10T20:31:32.793Z,98811.14
2019-03-10T20:34:05.771Z,98816.22
2019-03-10T20:36:38.432Z,98819.37
2019-03-10T20:39:10.721Z,98825.88
2019-03-10T20:41:42.296Z,98818.74
2019-03-10T20:44:13.072Z,98820.27
2019-03-10T20:46:44.949Z,98824.09
2019-03-10T20:49:17.595Z,98828.98
2019-03-10T20:51:49.549Z,98827.02
2019-03-10T20:54:26.176Z,98833.27
2019-03-10T20:57:00.489Z,98843.86
2019-03-10T20:59:32.658Z,98857.67
2019-03-10T21:02:05.157Z,98866.66
2019-03-10T21:04:36.118Z,98868.91
2019-03-10T21:07:06.581Z,98889.09
2019-03-10T21:09:42.050Z,98889.57
2019-03-10T21:12:20.713Z,98890.66
2019-03-10T21:14:54.704Z,98895.19
2019-03-10T21:17:25.744Z,98909.94
2019-03-10T21:20:04.556Z,98921.42
2019-03-10T21:22:37.339Z,98926.02
2019-03-10T21:25:11.173Z,98938.55
2019-03-10T21:27:43.427Z,98946.56
2019-03-10T21:30:19.985Z,98956.91
2019-03-10T21:32:51.865Z,98957.17
2019-03-10T21:35:33.073Z,98964.44
2019-03-10T21:38:05.657Z,98975.83
2019-03-10T21:40:37.165Z,98989.25
2019-03-10T21:43:07.685Z,98991.70
2019-03-10T21:45:42.210Z,98991.23
2019-03-10T21:48:13.250Z,98995.14
2019-03-10T21:50:47.872Z,98993.05
2019-03-10T21:53:21.457Z,98991.75
2019-03-10T21:55:54.635Z,99000.92
2019-03-10T21:58:26.602Z,99000.92
2019-03-10T22:00:58.620Z,99004.84
2019-03-10T22:03:31.354Z,99005.73
2019-03-10T22:06:03.033Z,99009.89
2019-03-10T22:08:33.806Z,99024.25
2019-03-10T22:11:05.312Z,99051.83
2019-03-10T22:13:46.324Z,99051.83
2019-03-10T22:16:09.226Z,99057.34
2019-03-10T22:18:39.731Z,99065.92
2019-03-10T22:21:13.763Z,99099.27
2019-03-10T22:23:45.759Z,99099.27
2019-03-10T22:26:22.375Z,99127.80
2019-03-10T22:28:52.891Z,99127.80
2019-03-10T22:31:30.689Z,99128.53
2019-03-10T22:34:07.274Z,99146.01
2019-03-10T22:36:42.449Z,99168.97
2019-03-10T22:39:21.291Z,99192.72
2019-03-10T22:41:55.278Z,99210.75
2019-03-10T22:44:26.743Z,99213.77
2019-03-10T22:46:57.261Z,99235.30
2019-03-10T22:49:28.831Z,99251.61
2019-03-10T22:52:02.123Z,99255.83
2019-03-10T22:54:33.777Z,99278.41
2019-03-10T22:57:04.027Z,99274.52
2019-03-10T22:59:41.559Z,99295.38
2019-03-10T23:02:12.731Z,99295.38
2019-03-10T23:04:44.495Z,99325.91
2019-03-10T23:07:16.410Z,99330.23
2019-03-10T23:09:52.755Z,99355.89
2019-03-10T23:12:30.709Z,99377.88
2019-03-10T23:15:12.087Z,99360.72
2019-03-10T23:17:48.489Z,99360.72
2019-03-10T23:20:24.382Z,99398.00
2019-03-10T23:23:11.361Z,99411.15
2019-03-10T23:25:51.846Z,99404.42
2019-03-10T23:28:35.561Z,99443.34
2019-03-10T23:31:17.874Z,99445.02
2019-03-10T23:33:54.014Z,99466.15
2019-03-10T23:36:24.258Z,99471.25
2019-03-10T23:38:56.605Z,99465.39
2019-03-10T23:41:28.986Z,99485.70
2019-03-10T23:43:59.227Z,99474.34
2019-03-10T23:46:30.658Z,99501.66
2019-03-10T23:49:00.912Z,99496.89
2019-03-10T23:51:31.409Z,99524.36
2019-03-10T23:54:01.648Z,99524.36
2019-03-10T23:56:32.162Z,99551.54
2019-03-10T23:59:03.614Z,99551.54
